Welcome to our Virtual Airline
Sign-in:

Flight MFCT00856-6A0

  • Submitted By: Jose Luis Fernandez De Castro
  • Departure Airport: Pauloff Harbor (KPH)
  • Arrival Airport: King Cove (PAVC)
  • Aircraft: KODIAK 100 (N490MM)
  • Flight Time: 00.19.38
  • Date Submitted: 23/06/26
  • Route: NO STOPS
  • Status: Accepted
Flight Details
Gross Revenue:
(6 load / $ 42.00 per unit
$ 252.00
Fuel Cost:
(64.8637 fuel used @ 5.1 / unit)
$ 330.80

Additional Log Information:

View Log

[23:07] ----- Flight Opened -----
[23:07] Cigar Box - 1.1.4.0
[23:07] FS:
[23:07] FSUIPC: v7,32
[23:07] Flight Number: MFCT00856-6A0
[23:07] FS Aircraft: Kodiak 100 Amphibian Factory paint B6 2021
[23:07] FS Model: KODIAK
[23:07] FS Type: DAHER
[23:07] Departure: KPH
[23:07] Arrival: PAVC
[23:07] Flight Level: 1500
[23:07] Flight Type: P
[23:07] Passengers: 6
[23:07] FOB: 1044 lbs
[23:07] Distance to Departure: 0,07 miles
[23:07] Gate: n/a
[23:07] NOTE: Parking Brake Ignored
[23:07] Crash Detection: Disabled
[23:07] Crash Detection Aircraft: Disabled
[23:07] Engines: 1 Turboprop
[23:07] NOTE: Boarding has started
[23:07] NOTE: Taxi started
[23:07] Landing Gear: Retracted
[23:07] Engine 1: Started
[23:07] Flaps: Position 1
[23:07] Light Data: Navigation ON
[23:07] Light Data: Beacon ON
[23:07] Light Data: Strobe lights ON
[23:07] Light Data: Cabin lights ON
[23:07] Main Door Closed
[23:07] COM1: 118.50
[23:07] COM2: 124.85
[23:07] Transponder: 6711
[23:07] NAV1: 110.50
[23:07] NAV2: 110.50
[23:07] ADF1: 890.0
[23:07] ADF2: 890.0
[23:07] Navigation Mode: GPS
[23:07] Navigation Mode: GPS
[23:08] NOTE: ----- TAKE OFF -----
[23:08] GS: 66 knots
[23:08] TAS: 52 knots
[23:08] IAS: 51 knots
[23:08] VS: -12 fpm
[23:08] FOB: 1040 lbs
[23:08] Heading: 28°
[23:08] Pitch: 4°
[23:08] Bank: 0°
[23:08] Aircraft Weight: 5881,07 lbs
[23:08] Nearest Airport: KPH
[23:08] Distance: 0,30 miles
[23:08] Runway: ???
[23:08] Ground Surface: Water
[23:08] Ground Condition: Normal
[23:08] NOTE: Weather Report
[23:08] Wind Heading: 185°
[23:08] Wind Speed: 18 knots
[23:08] OAT: 8° C
[23:08] TAT: 9° C
[23:08] Precipitation: None
[23:08] Dew Point: 0° C
[23:08] Visibility: 4 miles
[23:08] METAR: KPHP 262055Z AUTO 13005KT 10SM FEW090 26/13 A2999 RMK AO2 SLP142 T02560133 58012 KPHN 262035Z AUTO 18006KT 160V220 10SM SCT016 BKN024 OVC120 22/18 A2950 RMK AO2 KPHL 262054Z 16011KT 10SM FEW035 SCT060 BKN130 OVC200 29/21 A2964 RMK AO2 SLP036 OCNL LTGICCG DSNT NE-DSNT E CB DSNT NE-DSNT E MOV NE T02890211 58015 KPHD 262053Z AUTO 26010G16KT 10SM FEW044 SCT060 BKN100 26/16 A2962 RMK AO2 LTG DSNT N SLP022 60001 T02560161 56004 KPHX 262051Z 31007KT 10SM SCT120 SCT210 SCT270 42/M12 A2976 RMK AO2 SLP052 T04171122 58023 KPHF 262054Z 18014KT 10SM CLR 30/22 A2968 RMK AO2 SLP050 T03000222 58016 KPHT 262035Z AUTO 27010G16KT 230V290 10SM 30/16 A2981 RMK A01
[23:08] NOTE: Climb started
[23:08] FS: Paused
[23:08] Light Data: Instrument lights ON
[23:08] Light Data: Taxi lights ON
[23:08] Light Data: Wing lights ON
[23:09] Light Data: Recognition lights ON
[23:09] Light Data: Recognition lights OFF
[23:09] Light Data: Logo lights ON
[23:09] FS: Unpaused
[23:09] Autopilot: Engaged
[23:09] AGL: 164 ft
[23:09] AMSL: 164 ft
[23:09] View Mode: Virtual Cockpit
[23:09] Flaps: Position 0
[23:09] GS: 108 knots
[23:09] TAS: 98 knots
[23:09] IAS: 98 knots
[23:09] VS: 3741 fpm
[23:09] Light Data: Recognition lights ON
[23:09] Light Data: Logo lights OFF
[23:10] COM1: 118.50
[23:10] Stall: Encountered
[23:10] GS: 69 knots
[23:10] TAS: 51 knots
[23:10] IAS: 50 knots
[23:10] VS: 2235 fpm
[23:10] Stall: Corrected
[23:10] GS: 60 knots
[23:10] TAS: 33 knots
[23:10] IAS: 33 knots
[23:10] VS: 768 fpm
[23:10] NOTE: TOC reached
[23:10] NOTE: Cruise started
[23:10] GS: 58 knots
[23:10] TAS: 34 knots
[23:10] IAS: 33 knots
[23:10] VS: -26 fpm
[23:10] FOB: 1027 lbs
[23:10] Heading: 8°
[23:10] Pitch: 6°
[23:10] Bank: 87°
[23:10] Aircraft Weight: 5866,65 lbs
[23:10] Autopilot: Disengaged
[23:10] AGL: 1053 ft
[23:10] AMSL: 1053 ft
[23:10] NOTE: TOD reached
[23:10] NOTE: Descent started
[23:10] GS: 56 knots
[23:10] TAS: 37 knots
[23:10] IAS: 35 knots
[23:10] VS: -622 fpm
[23:10] FOB: 1027 lbs
[23:10] Heading: 5°
[23:10] Pitch: 15°
[23:10] Bank: 105°
[23:10] Aircraft Weight: 5866,65 lbs
[23:10] NOTE: On approach
[23:10] Stall: Encountered
[23:10] GS: 54 knots
[23:10] TAS: 42 knots
[23:10] IAS: 39 knots
[23:10] VS: -1730 fpm
[23:10] NOTE: ----- LANDED -----
[23:10] Landing Rate: -10080,12 fpm
[23:10] GS: 34 knots
[23:10] TAS: 0 knots
[23:10] IAS: 52 knots
[23:10] VS: -9230 fpm
[23:10] FOB: 1026 lbs
[23:10] Heading: 292°
[23:10] Pitch: 5°
[23:10] Bank: 19°
[23:10] Aircraft Weight: 5865,63 lbs
[23:10] Nearest Airport: KPH
[23:10] Distance: 1,34 miles
[23:10] Runway: ???
[23:10] Ground Surface: Water
[23:10] Ground Condition: Normal
[23:10] NOTE: Weather Report
[23:10] Wind Heading: 186°
[23:10] Wind Speed: 19 knots
[23:10] OAT: 8° C
[23:10] TAT: 8° C
[23:10] Precipitation: None
[23:10] Dew Point: 0° C
[23:10] Visibility: 4 miles
[23:10] METAR: PAVC 262056Z AUTO 26009KT 10SM FEW022 BKN030 OVC037 09/07 A2962 RMK AO2 RAB19E42 SLP031 6//// T00890067 57000 PNO $
[23:10] View Mode: Virtual Cockpit
[23:10] NOTE: Taxi started
[23:10] Light Data: Recognition lights OFF
[23:10] Light Data: Logo lights ON
[23:10] Transponder: 7364
[23:10] Stall: Encountered
[23:10] GS: 60 knots
[23:10] TAS: 72 knots
[23:10] IAS: 71 knots
[23:10] VS: 69 fpm
[23:10] Light Data: Recognition lights ON
[23:10] Light Data: Logo lights OFF
[23:10] Stall: Corrected
[23:10] GS: 44 knots
[23:10] TAS: 72 knots
[23:10] IAS: 68 knots
[23:10] VS: -3469 fpm
[23:10] Autopilot: Engaged
[23:10] AGL: 59 ft
[23:10] AMSL: 59 ft
[23:10] Autopilot: Disengaged
[23:10] AGL: 6 ft
[23:10] AMSL: 6 ft
[23:10] COM1: 122.90
[23:10] Engine 1: Stopped
[23:11] Light Data: Recognition lights OFF
[23:11] Light Data: Logo lights ON
[23:11] Light Data: Recognition lights ON
[23:11] Light Data: Logo lights OFF
[23:11] Light Data: Recognition lights OFF
[23:11] Light Data: Logo lights ON
[23:11] Autopilot: Engaged
[23:11] AGL: 0 ft
[23:11] AMSL: 0 ft
[23:11] Engine 1: Started
[23:11] Light Data: Taxi lights OFF
[23:11] Light Data: Instrument lights OFF
[23:11] Light Data: Wing lights OFF
[23:11] Light Data: Logo lights OFF
[23:11] COM1: 124.00
[23:11] Transponder: 1200
[23:11] View Mode: Spot Plane
[23:11] FS: Paused
[23:11] FS: Unpaused
[23:11] COM1: 118.50
[23:11] Transponder: 0027
[23:11] Autopilot: Disengaged
[23:11] AGL: 10898 ft
[23:11] AMSL: 10898 ft
[23:11] Overspeed: Encountered
[23:11] GS: 143 knots
[23:11] TAS: 209 knots
[23:11] IAS: 178 knots
[23:11] VS: -15458 fpm
[23:12] Overspeed: Corrected
[23:12] GS: 173 knots
[23:12] TAS: 205 knots
[23:12] IAS: 186 knots
[23:12] VS: -6918 fpm
[23:12] Light Data: Landing lights ON
[23:12] AGL: 2896 ft
[23:12] AMSL: 2896 ft
[23:12] Light Data: Taxi lights ON
[23:12] Light Data: Instrument lights ON
[23:13] Light Data: Wing lights ON
[23:13] Autopilot: Engaged
[23:13] AGL: 1259 ft
[23:13] AMSL: 1259 ft
[23:14] Stall: Encountered
[23:14] GS: 85 knots
[23:14] TAS: 66 knots
[23:14] IAS: 64 knots
[23:14] VS: -261 fpm
[23:14] Stall: Corrected
[23:14] GS: 93 knots
[23:14] TAS: 73 knots
[23:14] IAS: 71 knots
[23:14] VS: -326 fpm
[23:28] Autopilot: Disengaged
[23:28] AGL: 400 ft
[23:28] AMSL: 400 ft
[23:28] Flaps: Position 1
[23:28] GS: 134 knots
[23:28] TAS: 133 knots
[23:28] IAS: 133 knots
[23:28] VS: -402 fpm
[23:29] NOTE: ----- LANDED -----
[23:29] Landing Rate: -718,97 fpm
[23:29] GS: 89 knots
[23:29] TAS: 93 knots
[23:29] IAS: 93 knots
[23:29] VS: -546 fpm
[23:29] FOB: 933 lbs
[23:29] Heading: 240°
[23:29] Pitch: 3°
[23:29] Bank: -3°
[23:29] Aircraft Weight: 5773,15 lbs
[23:29] Nearest Airport: KVC
[23:29] Distance: 0,28 miles
[23:29] Runway: 25 - KVC
[23:29] Ground Surface: Concrete
[23:29] Ground Condition: Normal
[23:29] NOTE: Weather Report
[23:29] Wind Heading: 179°
[23:29] Wind Speed: 12 knots
[23:29] OAT: 8° C
[23:29] TAT: 9° C
[23:29] Precipitation: None
[23:29] Dew Point: 0° C
[23:29] Visibility: 4 miles
[23:29] METAR: PAVC 262056Z AUTO 26009KT 10SM FEW022 BKN030 OVC037 09/07 A2962 RMK AO2 RAB19E42 SLP031 6//// T00890067 57000 PNO $
[23:29] View Mode: Virtual Cockpit
[23:29] Flaps: Position 3
[23:29] Distance to Arrival: 0,02 miles
[23:29] Gate: n/a
[23:29] NOTE: Flight Completed
[23:29] FS Aircraft: Kodiak 100 Amphibian Factory paint B6 2021
[23:29] FS Model: KODIAK
[23:29] FS Type: DAHER
[23:29] FOB: 932 lbs
[23:29] Fuel Used: 143 lbs
[23:29] Flight Time: 00:19:38
[23:29] Flight Time (Dawn): 00:00:00
[23:29] Flight Time (Day): 00:19:38
[23:29] Flight Time (Dusk): 00:00:00
[23:29] Flight Time (Night): 00:00:00
[23:29] Total Landings: 2
[23:29] MaxSim Rate: 1x
[23:29] Cigar Box - 1.1.4.0
[23:29] ----- Flight Closed -----

Route Map

© 2023 - Misty Flying Club